Time;durP1;ratioP1;P1;durP2;ratioP2;P2;SDS_P1;SDS_P2;PMS_P1;PMS_P2;Temp;Humidity;BMP_temperature;BMP_pressure;BME280_temperature;BME280_humidity;BME280_pressure;Samples;Min_cycle;Max_cycle;Signal;HPM_P1;HPM_P2
2023/01/17 00:01:59;;;;;;;6.00;2.55;;;3.10;99.90;;;;;;5112600;28;20507;-85
2023/01/17 00:10:06;;;;;;;5.05;1.80;;;3.10;99.90;;;;;;5129293;28;20044;-84
2023/01/17 00:12:33;;;;;;;4.68;1.60;;;3.10;99.90;;;;;;5128815;28;20043;-85
2023/01/17 00:15:00;;;;;;;2.67;1.27;;;3.20;99.90;;;;;;5112199;28;20040;-85
2023/01/17 00:17:28;;;;;;;4.22;1.45;;;3.20;99.90;;;;;;5111883;28;20040;-85
2023/01/17 01:35:50;;;;;;;7.55;0.60;;;3.00;99.90;;;;;;5127785;28;20048;-85
2023/01/17 01:38:18;;;;;;;8.00;0.85;;;3.00;99.90;;;;;;5128036;28;20127;-85
2023/01/17 01:40:48;;;;;;;4.82;0.60;;;3.00;99.90;;;;;;5127557;28;20044;-84
2023/01/17 01:43:18;;;;;;;6.55;1.10;;;3.10;99.90;;;;;;5127195;28;20039;-85
2023/01/17 01:45:50;;;;;;;7.63;0.85;;;3.10;99.90;;;;;;5126802;28;20128;-85
2023/01/17 01:48:29;;;;;;;6.47;1.00;;;3.50;99.90;;;;;;5127489;28;20054;-85
2023/01/17 01:50:57;;;;;;;6.28;1.02;;;3.10;99.90;;;;;;5126964;28;20122;-85
2023/01/17 01:53:24;;;;;;;2.70;0.68;;;3.10;99.90;;;;;;5094135;28;20040;-85
2023/01/17 01:55:51;;;;;;;8.68;0.90;;;3.20;99.90;;;;;;5109880;28;20040;-86
2023/01/17 01:58:22;;;;;;;7.20;0.90;;;3.30;99.90;;;;;;5093879;28;20043;-85
2023/01/17 02:00:49;;;;;;;6.32;0.75;;;3.20;99.90;;;;;;5110286;28;20050;-85
2023/01/17 02:03:20;;;;;;;5.97;0.80;;;3.20;99.90;;;;;;5110401;28;20895;-85
2023/01/17 02:05:47;;;;;;;5.93;0.70;;;3.30;99.90;;;;;;5109845;28;20068;-85
2023/01/17 02:08:16;;;;;;;6.05;0.70;;;3.30;99.90;;;;;;5110124;28;20079;-85
2023/01/17 02:10:44;;;;;;;9.55;1.02;;;4.00;99.90;;;;;;5109478;28;20438;-84
2023/01/17 02:13:13;;;;;;;6.50;0.68;;;3.20;99.90;;;;;;5110235;28;20043;-85
2023/01/17 02:16:06;;;;;;;0.82;0.35;;;3.10;99.90;;;;;;5109425;28;20050;-85
2023/01/17 02:18:55;;;;;;;7.53;0.50;;;3.10;99.90;;;;;;5109201;28;20507;-85
2023/01/17 02:21:26;;;;;;;3.40;0.80;;;3.10;99.90;;;;;;5126174;28;20106;-85
2023/01/17 02:24:21;;;;;;;3.47;0.70;;;3.10;99.90;;;;;;5126453;28;20447;-85
2023/01/17 02:27:03;;;;;;;4.10;0.57;;;3.00;99.90;;;;;;5109566;28;20059;-85
2023/01/17 02:29:48;;;;;;;3.30;0.73;;;3.00;99.90;;;;;;5126652;28;20725;-85
2023/01/17 02:32:42;;;;;;;3.13;0.50;;;2.90;99.90;;;;;;5126806;28;20495;-85
2023/01/17 02:35:28;;;;;;;5.03;0.75;;;2.90;99.90;;;;;;5144096;28;20048;-85
2023/01/17 02:38:19;;;;;;;5.57;0.95;;;3.00;99.90;;;;;;5109196;28;20072;-84
2023/01/17 02:40:53;;;;;;;5.05;0.80;;;2.90;99.90;;;;;;5126351;28;20054;-84
2023/01/17 02:43:22;;;;;;;6.90;1.00;;;2.90;99.90;;;;;;5126442;28;20083;-84
2023/01/17 02:45:49;;;;;;;2.75;0.50;;;3.20;99.90;;;;;;5125587;28;20040;-84
2023/01/17 02:48:20;;;;;;;4.07;0.50;;;3.10;99.90;;;;;;5093037;28;20541;-85
2023/01/17 02:50:56;;;;;;;5.80;0.88;;;2.90;99.90;;;;;;5109151;28;20502;-85
2023/01/17 02:53:49;;;;;;;5.22;1.02;;;2.90;99.90;;;;;;5126401;28;20044;-84
2023/01/17 02:56:40;;;;;;;3.58;0.80;;;2.90;99.90;;;;;;5108809;28;20429;-85
2023/01/17 02:59:27;;;;;;;4.40;1.10;;;2.90;99.90;;;;;;5126657;28;20032;-85
2023/01/17 03:02:09;;;;;;;6.53;1.25;;;3.00;99.90;;;;;;5118615;28;20043;-84
2023/01/17 03:04:39;;;;;;;5.22;1.25;;;2.90;99.90;;;;;;5126577;28;20082;-84
2023/01/17 03:07:15;;;;;;;5.70;0.88;;;3.00;99.90;;;;;;5126294;28;20036;-84
2023/01/17 03:09:44;;;;;;;6.13;0.95;;;3.00;99.90;;;;;;5109370;28;20123;-84
2023/01/17 03:12:12;;;;;;;9.38;0.98;;;2.90;99.90;;;;;;5109350;28;20044;-84
2023/01/17 03:14:38;;;;;;;9.80;0.70;;;2.90;99.90;;;;;;5109246;28;20040;-84
2023/01/17 03:17:05;;;;;;;7.30;1.00;;;3.00;99.90;;;;;;5108982;28;20036;-83
2023/01/17 03:19:32;;;;;;;7.95;0.82;;;2.90;99.90;;;;;;5081959;28;20039;-85
2023/01/17 03:21:59;;;;;;;5.32;1.13;;;3.00;99.90;;;;;;5115561;28;20497;-85
2023/01/17 03:24:26;;;;;;;7.47;0.90;;;2.90;99.90;;;;;;5102832;28;20032;-84
2023/01/17 03:26:53;;;;;;;3.97;0.80;;;2.90;99.90;;;;;;5109111;28;20422;-85
2023/01/17 03:29:19;;;;;;;12.27;0.93;;;3.10;99.90;;;;;;5125986;28;20036;-84
2023/01/17 03:31:46;;;;;;;6.57;0.95;;;2.90;99.90;;;;;;5091934;28;20040;-84
2023/01/17 03:34:13;;;;;;;7.53;1.02;;;3.40;99.90;;;;;;5093889;28;20036;-85
2023/01/17 03:36:39;;;;;;;5.88;1.48;;;2.90;99.90;;;;;;5091637;28;20037;-84
2023/01/17 03:39:06;;;;;;;5.53;1.08;;;2.90;99.90;;;;;;5095336;28;20127;-85
2023/01/17 03:41:33;;;;;;;2.28;0.70;;;2.80;99.90;;;;;;5092591;28;20047;-84
2023/01/17 03:43:59;;;;;;;8.55;1.23;;;2.80;99.90;;;;;;5092299;28;20036;-84
2023/01/17 03:46:30;;;;;;;6.72;0.70;;;2.80;99.90;;;;;;5107974;28;20484;-85
2023/01/17 03:48:57;;;;;;;5.53;0.82;;;2.80;99.90;;;;;;5112736;28;20094;-84
2023/01/17 03:51:23;;;;;;;7.68;1.17;;;3.20;99.90;;;;;;5096092;28;20040;-84
2023/01/17 03:53:50;;;;;;;7.25;0.95;;;2.90;99.90;;;;;;5095695;28;20213;-84
2023/01/17 03:56:17;;;;;;;7.18;1.00;;;2.80;99.90;;;;;;5096277;28;20044;-84
2023/01/17 03:58:44;;;;;;;6.18;0.70;;;2.80;99.90;;;;;;5146645;28;20039;-84
2023/01/17 04:01:11;;;;;;;10.18;1.10;;;2.80;99.90;;;;;;5095781;28;20127;-84
2023/01/17 04:03:38;;;;;;;4.70;0.95;;;2.80;99.90;;;;;;5112724;28;20126;-84
2023/01/17 04:06:05;;;;;;;4.95;0.82;;;2.80;99.90;;;;;;5129110;28;20113;-84
2023/01/17 04:08:32;;;;;;;5.30;0.95;;;2.80;99.90;;;;;;5129091;28;20036;-84
2023/01/17 04:10:58;;;;;;;4.47;0.93;;;2.70;99.90;;;;;;5095680;28;20036;-84
2023/01/17 04:13:25;;;;;;;3.45;0.60;;;2.90;99.90;;;;;;5128913;28;20652;-84
2023/01/17 04:15:52;;;;;;;5.40;0.80;;;3.20;99.90;;;;;;5095187;28;20047;-84
2023/01/17 04:18:20;;;;;;;5.57;1.33;;;2.70;99.90;;;;;;5128701;28;20047;-84
2023/01/17 04:20:46;;;;;;;8.68;0.98;;;2.60;99.90;;;;;;5112336;28;20036;-84
2023/01/17 04:23:13;;;;;;;6.47;1.17;;;3.00;99.90;;;;;;5095421;28;20131;-84
2023/01/17 04:25:40;;;;;;;6.40;1.27;;;2.60;99.90;;;;;;5095524;28;20044;-84
2023/01/17 04:28:06;;;;;;;7.80;1.20;;;2.60;99.90;;;;;;5111897;28;20166;-84
2023/01/17 04:30:33;;;;;;;4.47;0.90;;;2.50;99.90;;;;;;5095360;28;20031;-84
2023/01/17 04:33:00;;;;;;;6.82;0.70;;;2.50;99.90;;;;;;5111684;28;20039;-84
2023/01/17 04:35:29;;;;;;;3.97;0.80;;;2.50;99.90;;;;;;5112138;28;20126;-84
2023/01/17 04:37:56;;;;;;;5.97;0.80;;;2.50;99.90;;;;;;5128674;28;20101;-84
2023/01/17 04:40:23;;;;;;;3.17;0.75;;;2.80;99.90;;;;;;5111562;28;20852;-83
2023/01/17 04:42:50;;;;;;;9.25;0.95;;;2.50;99.90;;;;;;5111449;28;20092;-84
2023/01/17 04:45:17;;;;;;;2.45;0.77;;;2.50;99.90;;;;;;5094280;28;20119;-84
2023/01/17 04:47:43;;;;;;;4.60;1.00;;;2.50;99.90;;;;;;5094668;28;20144;-84
2023/01/17 04:50:10;;;;;;;2.00;0.60;;;2.50;99.90;;;;;;5094457;28;20036;-84
2023/01/17 04:52:37;;;;;;;6.88;0.80;;;2.50;99.90;;;;;;5128559;28;20063;-84
2023/01/17 04:55:05;;;;;;;6.28;0.82;;;3.10;99.90;;;;;;5111320;28;20044;-83
2023/01/17 04:57:31;;;;;;;8.02;1.02;;;2.50;99.90;;;;;;5111310;28;20131;-84
2023/01/17 04:59:58;;;;;;;6.05;1.33;;;2.40;99.90;;;;;;5111286;28;20139;-84
2023/01/17 05:02:25;;;;;;;4.85;1.02;;;2.40;99.90;;;;;;5128003;28;20097;-86
2023/01/17 05:04:52;;;;;;;6.75;0.90;;;2.50;99.90;;;;;;5111007;28;20051;-84
2023/01/17 05:07:18;;;;;;;4.20;0.90;;;2.30;99.90;;;;;;5127975;28;20399;-83
2023/01/17 05:09:46;;;;;;;12.25;1.10;;;2.50;99.90;;;;;;5094294;28;20054;-84
2023/01/17 05:12:13;;;;;;;7.75;0.98;;;2.10;99.90;;;;;;5094381;28;20032;-83
2023/01/17 05:14:39;;;;;;;9.48;1.20;;;2.00;99.90;;;;;;5110742;28;20036;-84
2023/01/17 05:17:06;;;;;;;5.45;1.20;;;2.00;99.90;;;;;;5093976;28;20073;-84
2023/01/17 05:19:33;;;;;;;7.22;1.13;;;1.90;99.90;;;;;;5111080;28;20039;-83
2023/01/17 05:22:02;;;;;;;4.10;1.08;;;1.90;99.90;;;;;;5110565;28;20040;-82
2023/01/17 05:24:30;;;;;;;5.75;0.90;;;1.80;99.90;;;;;;5110698;28;20039;-84
2023/01/17 05:27:01;;;;;;;3.80;0.60;;;1.80;99.90;;;;;;5110808;28;20093;-84
2023/01/17 05:29:29;;;;;;;5.28;1.45;;;2.40;99.90;;;;;;5111540;28;20036;-84
2023/01/17 05:31:56;;;;;;;6.63;1.00;;;1.70;99.90;;;;;;5127670;28;20540;-84
2023/01/17 05:34:22;;;;;;;8.18;1.00;;;1.80;99.90;;;;;;5093593;28;20143;-84
2023/01/17 05:36:49;;;;;;;13.45;1.50;;;1.70;99.90;;;;;;5111064;28;20105;-83
2023/01/17 05:39:16;;;;;;;7.13;1.25;;;1.70;99.90;;;;;;5110145;28;20040;-84
2023/01/17 05:41:43;;;;;;;4.30;0.80;;;1.70;99.90;;;;;;5093963;28;20411;-84
2023/01/17 05:44:09;;;;;;;7.10;0.70;;;1.70;99.90;;;;;;5110139;28;20044;-83
2023/01/17 05:46:36;;;;;;;6.40;1.05;;;1.60;99.90;;;;;;5109932;28;20052;-83
2023/01/17 05:49:03;;;;;;;3.03;0.73;;;1.60;99.90;;;;;;5093729;28;20040;-84
2023/01/17 05:51:30;;;;;;;2.40;0.57;;;1.60;99.90;;;;;;5110478;28;20075;-83
2023/01/17 05:53:56;;;;;;;7.38;1.08;;;1.60;99.90;;;;;;5110481;28;20045;-83
2023/01/17 05:56:23;;;;;;;9.32;0.80;;;2.00;99.90;;;;;;5092351;28;20126;-84
2023/01/17 05:58:50;;;;;;;5.93;0.77;;;1.70;99.90;;;;;;5109875;28;20051;-84
2023/01/17 06:01:16;;;;;;;5.72;0.80;;;2.00;99.90;;;;;;5126997;28;20040;-84
2023/01/17 06:03:43;;;;;;;9.45;1.10;;;1.60;99.90;;;;;;5093391;28;20411;-83
2023/01/17 06:06:10;;;;;;;8.65;0.77;;;2.20;99.90;;;;;;5109425;28;20113;-83
2023/01/17 06:08:36;;;;;;;12.63;1.15;;;2.10;99.90;;;;;;5109505;28;20051;-84
2023/01/17 06:11:03;;;;;;;6.38;1.45;;;2.10;99.90;;;;;;5092971;28;20044;-84
2023/01/17 06:13:31;;;;;;;2.58;0.60;;;1.70;99.90;;;;;;5109472;28;20051;-83
2023/01/17 06:16:01;;;;;;;4.70;0.90;;;1.60;99.90;;;;;;5093312;28;20059;-84
2023/01/17 06:18:29;;;;;;;2.60;0.75;;;1.60;99.90;;;;;;5110233;28;20055;-84
2023/01/17 06:20:56;;;;;;;4.60;0.60;;;1.60;99.90;;;;;;5111844;28;20085;-84
2023/01/17 06:23:23;;;;;;;6.32;0.95;;;1.60;99.90;;;;;;5109698;28;20128;-84
2023/01/17 06:25:50;;;;;;;5.38;0.70;;;1.50;99.90;;;;;;5126734;28;20032;-83
2023/01/17 06:28:21;;;;;;;3.72;0.70;;;2.10;99.90;;;;;;5126407;28;20040;-83
2023/01/17 06:30:49;;;;;;;6.95;0.98;;;1.40;99.90;;;;;;5126577;28;20514;-83
2023/01/17 06:33:15;;;;;;;10.45;1.48;;;1.40;99.90;;;;;;5109507;28;20036;-83
2023/01/17 06:35:49;;;;;;;3.63;0.90;;;1.30;99.90;;;;;;5109478;28;20044;-84
2023/01/17 06:38:16;;;;;;;5.25;0.70;;;1.30;99.90;;;;;;5109579;28;20044;-83
2023/01/17 06:40:43;;;;;;;6.90;1.00;;;1.20;99.90;;;;;;5109448;28;20040;-84
2023/01/17 06:43:10;;;;;;;2.55;0.60;;;1.20;99.90;;;;;;5126428;28;20557;-83
2023/01/17 06:45:36;;;;;;;0.30;0.30;;;1.30;99.90;;;;;;5092822;28;20036;-84
2023/01/17 06:48:04;;;;;;;4.75;0.85;;;1.30;99.90;;;;;;5126253;28;20139;-83
2023/01/17 06:50:32;;;;;;;0.35;0.35;;;1.10;99.90;;;;;;5109157;28;20476;-83
2023/01/17 06:53:02;;;;;;;4.97;0.65;;;1.20;99.90;;;;;;5126169;28;20043;-83
2023/01/17 06:55:30;;;;;;;4.32;0.50;;;1.00;99.90;;;;;;5125831;28;20495;-84
2023/01/17 06:57:58;;;;;;;0.40;0.40;;;1.40;99.90;;;;;;5092868;28;20407;-83
2023/01/17 07:00:29;;;;;;;0.30;0.30;;;1.10;99.90;;;;;;5109274;28;20081;-84
2023/01/17 07:02:56;;;;;;;2.88;0.40;;;1.30;99.90;;;;;;5109448;28;20043;-83
2023/01/17 07:05:24;;;;;;;4.85;0.45;;;1.00;99.90;;;;;;5108796;28;20037;-83
2023/01/17 07:07:50;;;;;;;4.15;0.65;;;1.00;99.90;;;;;;5110180;28;20085;-83
2023/01/17 07:10:17;;;;;;;4.70;0.28;;;1.00;99.90;;;;;;5130056;28;20551;-83
2023/01/17 07:12:44;;;;;;;3.30;0.90;;;1.00;99.90;;;;;;5093900;28;20036;-83
2023/01/17 07:15:11;;;;;;;3.35;0.30;;;1.00;99.90;;;;;;5124002;28;20602;-83
2023/01/17 07:17:38;;;;;;;1.05;0.50;;;1.00;99.90;;;;;;5112921;28;20181;-83
2023/01/17 07:20:06;;;;;;;1.08;0.55;;;1.00;99.90;;;;;;5062410;28;20119;-83
2023/01/17 07:22:32;;;;;;;0.20;0.20;;;0.90;99.90;;;;;;5092856;28;20041;-82
2023/01/17 07:24:59;;;;;;;0.93;0.40;;;0.90;99.90;;;;;;5092734;28;20037;-82
2023/01/17 07:27:29;;;;;;;0.57;0.32;;;1.40;99.90;;;;;;5103243;28;20124;-83
2023/01/17 07:29:56;;;;;;;0.70;0.47;;;0.90;99.90;;;;;;5112645;28;20036;-82
2023/01/17 07:32:25;;;;;;;2.92;0.98;;;0.90;99.90;;;;;;5110950;28;20079;-83
2023/01/17 07:34:52;;;;;;;2.63;1.05;;;0.90;99.90;;;;;;5098384;28;20040;-82
2023/01/17 07:37:19;;;;;;;0.63;0.50;;;0.80;99.90;;;;;;5097983;28;20036;-80
2023/01/17 07:39:46;;;;;;;0.20;0.20;;;1.30;99.90;;;;;;5121175;28;20484;-83
2023/01/17 07:42:13;;;;;;;1.95;0.28;;;1.30;99.90;;;;;;5112218;28;20036;-82
2023/01/17 07:44:42;;;;;;;1.63;0.30;;;0.80;99.90;;;;;;5119608;28;20047;-83
2023/01/17 07:47:10;;;;;;;0.63;0.40;;;0.80;99.90;;;;;;5098047;28;20048;-82
2023/01/17 07:49:37;;;;;;;0.45;0.32;;;0.80;99.90;;;;;;5072818;28;20041;-83
2023/01/17 07:52:06;;;;;;;1.00;0.60;;;1.20;99.90;;;;;;5097652;28;20033;-83
2023/01/17 07:54:33;;;;;;;1.58;0.70;;;1.00;99.90;;;;;;5111730;28;20481;-84
2023/01/17 07:57:00;;;;;;;1.95;0.73;;;0.70;99.90;;;;;;5094529;28;20051;-84
2023/01/17 07:59:27;;;;;;;0.90;0.30;;;0.80;99.90;;;;;;5099640;28;20123;-83
2023/01/17 08:01:54;;;;;;;4.60;0.75;;;0.80;99.90;;;;;;5103889;28;20521;-81
2023/01/17 08:04:24;;;;;;;6.90;0.75;;;0.80;99.90;;;;;;5099156;28;20488;-82
2023/01/17 08:06:53;;;;;;;1.88;0.52;;;0.80;99.90;;;;;;5128720;28;20037;-82
2023/01/17 08:09:19;;;;;;;0.20;0.20;;;0.80;99.90;;;;;;5111453;28;20031;-82
2023/01/17 08:11:46;;;;;;;2.63;0.75;;;0.80;99.90;;;;;;5085689;28;20037;-82
2023/01/17 08:14:13;;;;;;;3.33;0.50;;;0.80;99.90;;;;;;5117203;28;20484;-82
2023/01/17 08:16:40;;;;;;;0.20;0.20;;;0.80;99.90;;;;;;5117825;28;20075;-81
2023/01/17 08:19:07;;;;;;;0.70;0.30;;;0.80;99.90;;;;;;5101063;28;20040;-83
2023/01/17 08:21:34;;;;;;;0.35;0.35;;;0.90;99.90;;;;;;5098792;28;20051;-83
2023/01/17 08:24:00;;;;;;;1.02;0.45;;;0.80;99.90;;;;;;5074726;28;20074;-83
2023/01/17 08:26:27;;;;;;;3.05;0.77;;;1.40;99.90;;;;;;5107494;28;20401;-83
2023/01/17 08:28:55;;;;;;;0.68;0.40;;;1.20;99.90;;;;;;5077274;28;20400;-83
2023/01/17 08:31:23;;;;;;;1.67;0.50;;;0.80;99.90;;;;;;5092708;28;20032;-83
2023/01/17 08:33:50;;;;;;;1.42;0.70;;;1.10;99.90;;;;;;5126985;28;20051;-83
2023/01/17 08:36:17;;;;;;;1.50;0.52;;;0.90;99.90;;;;;;5110765;28;20032;-83
2023/01/17 08:38:43;;;;;;;4.28;0.30;;;0.90;99.90;;;;;;5123864;28;20044;-83
2023/01/17 08:41:11;;;;;;;3.47;0.47;;;1.10;99.90;;;;;;5106754;28;20555;-83
2023/01/17 08:43:38;;;;;;;1.63;0.55;;;1.00;99.90;;;;;;5100368;28;20133;-83
2023/01/17 08:46:05;;;;;;;5.45;1.85;;;1.00;99.90;;;;;;5099537;28;20488;-82
2023/01/17 08:48:32;;;;;;;1.40;0.60;;;1.00;99.90;;;;;;5128210;28;20087;-83
2023/01/17 08:51:01;;;;;;;2.60;1.13;;;1.60;99.90;;;;;;5107589;28;20037;-84
2023/01/17 08:53:28;;;;;;;2.42;1.10;;;1.10;99.90;;;;;;5074000;28;20546;-83
2023/01/17 08:56:00;;;;;;;0.30;0.30;;;1.10;99.90;;;;;;5091037;28;20040;-84
2023/01/17 08:58:28;;;;;;;0.85;0.32;;;1.10;99.90;;;;;;5091060;28;20033;-83
2023/01/17 09:01:01;;;;;;;1.20;0.45;;;1.20;99.90;;;;;;5107584;28;20075;-83
2023/01/17 09:03:28;;;;;;;3.53;0.68;;;1.20;99.90;;;;;;5107639;28;20048;-81
2023/01/17 09:06:01;;;;;;;1.35;0.82;;;1.20;99.90;;;;;;5107192;28;20093;-83
2023/01/17 09:08:27;;;;;;;5.43;1.40;;;1.20;99.90;;;;;;5107456;28;20098;-83
2023/01/17 09:10:54;;;;;;;2.55;1.33;;;1.30;99.90;;;;;;5090561;28;20037;-83
2023/01/17 09:13:21;;;;;;;0.47;0.35;;;2.10;99.90;;;;;;5107204;28;20032;-84
2023/01/17 09:15:48;;;;;;;8.05;0.82;;;1.30;99.90;;;;;;5108551;28;20036;-84
2023/01/17 09:18:15;;;;;;;5.18;0.73;;;1.60;99.90;;;;;;5094061;28;20450;-84
2023/01/17 09:20:41;;;;;;;5.50;1.13;;;1.30;99.90;;;;;;5093397;28;20519;-84
2023/01/17 09:23:08;;;;;;;0.77;0.60;;;1.30;99.90;;;;;;5093933;28;20040;-84
2023/01/17 09:25:43;;;;;;;7.85;0.68;;;1.40;99.90;;;;;;5110341;28;20089;-84
2023/01/17 09:28:10;;;;;;;1.23;0.70;;;1.90;99.90;;;;;;5127388;28;20071;-83
2023/01/17 09:30:36;;;;;;;1.58;0.55;;;1.40;99.90;;;;;;5093141;28;20094;-84
2023/01/17 09:33:03;;;;;;;1.73;0.45;;;1.60;99.90;;;;;;5093130;28;20043;-81
2023/01/17 09:35:30;;;;;;;5.00;1.05;;;1.50;99.90;;;;;;5110157;28;20040;-84
2023/01/17 09:37:57;;;;;;;1.55;0.90;;;1.60;99.90;;;;;;5110376;28;20079;-84
2023/01/17 09:40:24;;;;;;;0.30;0.30;;;1.70;99.90;;;;;;5093863;28;20082;-83
2023/01/17 09:42:54;;;;;;;1.73;0.70;;;1.80;99.90;;;;;;5126584;28;20712;-84
2023/01/17 09:45:20;;;;;;;3.33;0.73;;;1.80;99.90;;;;;;5110140;28;20589;-83
2023/01/17 09:47:52;;;;;;;2.00;0.65;;;1.80;99.90;;;;;;5090051;28;20056;-84
2023/01/17 09:50:22;;;;;;;6.50;0.55;;;1.90;99.90;;;;;;5118457;28;20119;-83
2023/01/17 09:52:49;;;;;;;3.92;0.63;;;2.20;99.90;;;;;;5118593;28;20040;-83
2023/01/17 09:55:16;;;;;;;4.47;0.52;;;2.20;99.90;;;;;;5125076;28;20104;-83
2023/01/17 09:58:03;;;;;;;3.25;0.50;;;2.00;99.90;;;;;;5092896;28;20782;-84
2023/01/17 10:00:40;;;;;;;0.60;0.50;;;2.00;99.90;;;;;;5105598;28;20507;-84
2023/01/17 10:03:25;;;;;;;0.45;0.43;;;2.00;99.90;;;;;;5109630;28;20506;-83
2023/01/17 10:06:33;;;;;;;1.33;0.63;;;2.10;99.90;;;;;;5109253;28;20028;-84
2023/01/17 10:09:26;;;;;;;3.75;0.98;;;2.10;99.90;;;;;;5127118;28;20042;-84
2023/01/17 10:12:01;;;;;;;0.77;0.47;;;2.20;99.90;;;;;;5126223;28;20039;-84
2023/01/17 10:14:46;;;;;;;1.65;0.63;;;2.20;99.90;;;;;;5122280;28;20032;-83
2023/01/17 10:17:21;;;;;;;0.65;0.50;;;2.30;99.90;;;;;;5115706;28;20079;-84
2023/01/17 10:20:00;;;;;;;0.85;0.68;;;2.40;99.90;;;;;;5105861;28;20043;-83
2023/01/17 10:22:50;;;;;;;0.60;0.40;;;2.30;99.90;;;;;;5106630;28;20036;-83
2023/01/17 10:25:35;;;;;;;0.30;0.30;;;2.30;99.90;;;;;;5107072;28;20408;-83
2023/01/17 10:28:14;;;;;;;1.50;0.65;;;2.20;99.90;;;;;;5126039;28;20043;-84
2023/01/17 10:30:50;;;;;;;0.90;0.60;;;2.20;99.90;;;;;;5109643;28;20484;-84
2023/01/17 10:33:20;;;;;;;1.27;0.40;;;2.20;99.90;;;;;;5109925;28;20036;-84
2023/01/17 10:35:56;;;;;;;1.60;0.88;;;2.50;99.90;;;;;;5108679;28;20040;-84
2023/01/17 10:38:33;;;;;;;4.25;0.88;;;2.10;99.90;;;;;;5125570;28;20048;-84
2023/01/17 10:41:04;;;;;;;0.63;0.40;;;2.20;99.90;;;;;;5109099;28;20082;-83
2023/01/17 10:44:02;;;;;;;2.65;0.63;;;2.20;99.90;;;;;;5109504;28;20086;-84
2023/01/17 10:46:43;;;;;;;1.38;0.60;;;2.30;99.90;;;;;;5105937;28;20531;-84
2023/01/17 10:49:20;;;;;;;7.13;0.50;;;2.40;99.90;;;;;;5109641;28;20036;-84
2023/01/17 10:52:07;;;;;;;4.78;0.40;;;2.90;99.90;;;;;;5126512;28;20039;-83
2023/01/17 10:54:50;;;;;;;0.65;0.50;;;2.50;99.90;;;;;;5109488;28;20492;-84
2023/01/17 10:57:24;;;;;;;1.33;0.60;;;2.60;99.90;;;;;;5109815;28;20361;-85
2023/01/17 10:59:54;;;;;;;1.85;0.63;;;2.60;99.90;;;;;;5109416;28;20729;-85
2023/01/17 11:02:31;;;;;;;1.42;0.68;;;2.70;99.90;;;;;;5109652;28;20121;-84
2023/01/17 11:05:04;;;;;;;3.72;0.63;;;2.60;99.90;;;;;;5108609;28;20805;-84
2023/01/17 11:07:31;;;;;;;0.70;0.52;;;2.70;99.90;;;;;;5113227;28;20032;-84
2023/01/17 11:09:58;;;;;;;1.27;0.60;;;2.70;99.90;;;;;;5074276;28;20055;-85
2023/01/17 11:12:47;;;;;;;6.35;0.75;;;3.00;99.90;;;;;;5105203;28;20428;-84
2023/01/17 11:15:20;;;;;;;0.32;0.30;;;2.80;99.90;;;;;;5106566;28;20093;-85
2023/01/17 11:18:00;;;;;;;1.13;0.70;;;2.80;99.90;;;;;;5104260;28;20043;-84
2023/01/17 11:20:37;;;;;;;2.17;0.68;;;2.80;99.90;;;;;;5102121;28;20508;-83
2023/01/17 11:23:16;;;;;;;0.85;0.40;;;2.90;99.90;;;;;;5093686;28;20044;-83
2023/01/17 11:26:04;;;;;;;0.40;0.40;;;2.90;99.90;;;;;;5115088;28;21401;-84
2023/01/17 11:28:34;;;;;;;0.30;0.28;;;2.90;99.90;;;;;;5105791;28;20028;-83
2023/01/17 11:31:27;;;;;;;4.30;0.80;;;2.90;99.90;;;;;;5116019;28;20074;-84
2023/01/17 11:34:13;;;;;;;0.55;0.40;;;3.00;99.90;;;;;;5116823;28;20935;-83
2023/01/17 11:36:41;;;;;;;3.25;1.02;;;3.00;99.90;;;;;;5105220;28;20041;-84
2023/01/17 11:39:16;;;;;;;1.20;0.40;;;3.00;99.90;;;;;;5105080;28;20400;-84
2023/01/17 11:41:44;;;;;;;;;;;3.00;99.90;;;;;;5104957;28;20051;-83
2023/01/17 11:44:21;;;;;;;1.40;0.30;;;3.00;99.90;;;;;;5106032;28;19916;-83
2023/01/17 11:47:07;;;;;;;1.35;0.73;;;3.00;99.90;;;;;;5107366;28;20045;-83
2023/01/17 11:49:34;;;;;;;2.35;0.80;;;3.10;99.90;;;;;;5124818;28;20044;-83
2023/01/17 11:52:07;;;;;;;1.58;0.45;;;3.20;99.90;;;;;;5108057;28;20122;-83
2023/01/17 11:54:38;;;;;;;0.40;0.40;;;3.10;99.90;;;;;;5125870;28;20549;-83
2023/01/17 11:57:30;;;;;;;2.78;0.70;;;3.10;99.90;;;;;;5120412;28;20094;-83
2023/01/17 12:00:23;;;;;;;0.70;0.40;;;3.10;99.90;;;;;;5108493;28;20408;-83
2023/01/17 12:03:13;;;;;;;2.20;1.02;;;3.10;99.90;;;;;;5118575;28;20044;-84
2023/01/17 12:05:55;;;;;;;1.30;0.50;;;3.10;99.90;;;;;;5122659;28;20040;-85
2023/01/17 12:08:30;;;;;;;0.82;0.63;;;3.20;99.90;;;;;;5100562;28;20045;-86
2023/01/17 12:11:29;;;;;;;9.05;0.90;;;3.20;99.90;;;;;;5111860;28;20032;-84
2023/01/17 12:14:21;;;;;;;2.65;0.75;;;3.30;99.90;;;;;;5127327;28;20036;-84
2023/01/17 12:16:48;;;;;;;1.77;0.43;;;3.30;99.90;;;;;;5128442;28;20039;-84
2023/01/17 12:19:33;;;;;;;0.70;0.60;;;3.30;99.90;;;;;;5110679;28;20040;-83
2023/01/17 12:22:21;;;;;;;2.90;0.90;;;3.30;99.90;;;;;;5120468;28;20048;-83
2023/01/17 12:25:16;;;;;;;1.38;0.70;;;3.30;99.90;;;;;;5113674;28;20131;-84
2023/01/17 12:27:58;;;;;;;4.00;0.60;;;3.40;99.90;;;;;;5127742;28;20032;-84
2023/01/17 12:30:40;;;;;;;1.63;0.65;;;3.40;99.90;;;;;;5128812;28;20035;-84
2023/01/17 12:33:31;;;;;;;1.75;0.75;;;3.50;99.90;;;;;;5128004;28;20044;-84
2023/01/17 12:36:03;;;;;;;0.90;0.55;;;3.50;99.90;;;;;;5128169;28;20066;-84
2023/01/17 12:38:38;;;;;;;0.77;0.50;;;3.60;99.90;;;;;;5128171;28;20044;-83
2023/01/17 12:41:12;;;;;;;4.43;1.08;;;3.60;99.90;;;;;;5110989;28;20044;-84
2023/01/17 12:43:40;;;;;;;1.15;0.73;;;3.60;99.90;;;;;;5107833;28;20052;-83
2023/01/17 12:46:20;;;;;;;3.50;0.40;;;3.60;99.90;;;;;;5090827;28;20044;-83
2023/01/17 12:49:07;;;;;;;0.50;0.50;;;3.50;99.90;;;;;;5091215;28;20052;-84
2023/01/17 12:51:38;;;;;;;2.67;0.77;;;3.50;99.90;;;;;;5123317;28;20036;-84
2023/01/17 12:54:18;;;;;;;6.05;0.60;;;4.00;99.90;;;;;;5110804;28;20039;-82
2023/01/17 12:57:02;;;;;;;0.77;0.52;;;3.70;99.90;;;;;;5110948;28;20079;-84
2023/01/17 12:59:43;;;;;;;0.93;0.60;;;4.10;99.90;;;;;;5127844;28;20067;-84
2023/01/17 13:02:30;;;;;;;1.17;0.50;;;3.70;99.90;;;;;;5104004;28;20459;-84
2023/01/17 13:05:14;;;;;;;0.95;0.45;;;3.70;99.90;;;;;;5118061;28;20082;-83
2023/01/17 13:07:51;;;;;;;1.25;0.70;;;3.80;99.90;;;;;;5110552;28;20044;-84
2023/01/17 13:10:39;;;;;;;0.60;0.55;;;3.80;99.90;;;;;;5114988;28;20066;-84
2023/01/17 13:13:23;;;;;;;0.40;0.40;;;3.90;99.90;;;;;;5127366;28;20039;-84
2023/01/17 13:15:57;;;;;;;5.68;0.77;;;3.90;99.90;;;;;;5102392;28;20048;-84
2023/01/17 13:18:28;;;;;;;2.95;0.65;;;3.90;99.90;;;;;;5139468;28;20044;-84
2023/01/17 13:21:06;;;;;;;0.63;0.40;;;3.90;99.90;;;;;;5110452;28;20075;-84
2023/01/17 13:23:55;;;;;;;0.73;0.50;;;3.90;99.90;;;;;;5099055;28;20407;-84
2023/01/17 13:26:24;;;;;;;1.90;0.95;;;4.00;99.90;;;;;;5120949;28;20058;-84
2023/01/17 13:28:57;;;;;;;3.08;0.63;;;4.00;99.90;;;;;;5102362;28;20072;-84
2023/01/17 13:31:30;;;;;;;0.68;0.47;;;4.00;99.90;;;;;;5109348;28;20090;-85
2023/01/17 13:34:05;;;;;;;4.22;0.75;;;4.10;99.90;;;;;;5116135;28;20454;-85
2023/01/17 13:36:58;;;;;;;1.63;0.90;;;3.90;99.90;;;;;;5124137;28;20087;-85
2023/01/17 13:39:52;;;;;;;2.53;0.68;;;4.00;99.90;;;;;;5112224;28;20048;-84
2023/01/17 13:42:39;;;;;;;1.70;0.70;;;4.00;99.90;;;;;;5113065;28;20135;-85
2023/01/17 13:45:21;;;;;;;1.52;0.80;;;4.00;99.90;;;;;;5143700;28;20092;-84
2023/01/17 13:47:47;;;;;;;7.22;1.42;;;4.00;99.90;;;;;;5126646;28;20812;-83
2023/01/17 13:50:56;;;;;;;1.08;0.65;;;4.10;99.90;;;;;;5109914;28;20032;-83
2023/01/17 13:53:37;;;;;;;3.17;0.68;;;4.10;99.90;;;;;;5063803;28;20032;-84
2023/01/17 13:56:24;;;;;;;6.43;2.03;;;4.20;99.90;;;;;;5106963;28;20055;-84
2023/01/17 13:58:53;;;;;;;2.78;1.02;;;4.20;99.90;;;;;;5109889;28;20388;-86
2023/01/17 14:01:23;;;;;;;1.17;0.70;;;4.20;99.90;;;;;;5109809;28;20093;-85
2023/01/17 14:03:50;;;;;;;7.22;0.85;;;4.30;99.90;;;;;;5109697;28;20062;-84
2023/01/17 14:06:35;;;;;;;0.57;0.40;;;4.30;99.90;;;;;;5126390;28;20040;-84
2023/01/17 14:09:07;;;;;;;1.88;0.68;;;4.30;99.90;;;;;;5111647;28;20083;-84
2023/01/17 14:12:02;;;;;;;1.63;0.88;;;4.30;99.90;;;;;;5106056;28;20135;-84
2023/01/17 14:14:41;;;;;;;7.60;1.27;;;4.30;99.90;;;;;;5121329;28;20519;-85
2023/01/17 14:17:26;;;;;;;1.95;1.00;;;4.30;99.90;;;;;;5120509;28;20040;-82
2023/01/17 14:20:08;;;;;;;1.27;0.73;;;4.30;99.90;;;;;;5124954;28;20690;-82
2023/01/17 14:22:40;;;;;;;2.40;0.73;;;4.30;99.90;;;;;;5126558;28;20044;-84
2023/01/17 14:25:18;;;;;;;2.15;0.95;;;4.20;99.90;;;;;;5107840;28;20052;-83
2023/01/17 14:27:59;;;;;;;4.88;0.93;;;4.20;99.90;;;;;;5126362;28;20039;-83
2023/01/17 14:30:32;;;;;;;0.55;0.47;;;4.20;99.90;;;;;;5126052;28;20032;-83
2023/01/17 14:33:07;;;;;;;2.50;1.00;;;4.10;99.90;;;;;;5125955;28;20058;-83
2023/01/17 14:35:47;;;;;;;1.60;0.70;;;4.00;99.90;;;;;;5126172;28;20062;-83
2023/01/17 14:38:40;;;;;;;1.20;0.47;;;3.90;99.90;;;;;;5109227;28;20404;-83
2023/01/17 14:41:12;;;;;;;2.85;0.77;;;3.80;99.90;;;;;;5125265;28;20127;-83
2023/01/17 14:43:42;;;;;;;1.80;0.90;;;3.80;99.90;;;;;;5126178;28;20040;-83
2023/01/17 14:46:31;;;;;;;2.25;0.68;;;3.70;99.90;;;;;;5108763;28;20132;-83
2023/01/17 14:49:00;;;;;;;0.73;0.38;;;3.60;99.90;;;;;;5125294;28;20044;-83